sensor_id;sensor_type;location;lat;lon;timestamp;temperature;humidity
12370;DHT22;6249;52.128;9.986;2023-02-01T00:01:38;5.40;99.90
12370;DHT22;6249;52.128;9.986;2023-02-01T00:05:03;5.40;99.90
12370;DHT22;6249;52.128;9.986;2023-02-01T00:08:24;5.50;99.90
12370;DHT22;6249;52.128;9.986;2023-02-01T00:11:47;5.40;99.90
12370;DHT22;6249;52.128;9.986;2023-02-01T00:15:11;5.30;99.90
12370;DHT22;6249;52.128;9.986;2023-02-01T00:18:34;5.30;99.90
12370;DHT22;6249;52.128;9.986;2023-02-01T00:21:55;5.30;99.90
12370;DHT22;6249;52.128;9.986;2023-02-01T00:25:15;5.30;99.90
12370;DHT22;6249;52.128;9.986;2023-02-01T00:28:36;5.40;99.90
12370;DHT22;6249;52.128;9.986;2023-02-01T00:31:57;5.30;99.90
12370;DHT22;6249;52.128;9.986;2023-02-01T00:35:17;5.30;99.90
12370;DHT22;6249;52.128;9.986;2023-02-01T00:38:40;5.30;99.90
12370;DHT22;6249;52.128;9.986;2023-02-01T00:42:03;5.20;99.90
12370;DHT22;6249;52.128;9.986;2023-02-01T00:45:24;5.30;99.90
12370;DHT22;6249;52.128;9.986;2023-02-01T00:48:45;5.20;99.90
12370;DHT22;6249;52.128;9.986;2023-02-01T00:52:08;5.30;99.90
12370;DHT22;6249;52.128;9.986;2023-02-01T00:55:30;5.20;99.90
12370;DHT22;6249;52.128;9.986;2023-02-01T00:58:51;5.30;99.90
12370;DHT22;6249;52.128;9.986;2023-02-01T01:02:12;5.20;99.90
12370;DHT22;6249;52.128;9.986;2023-02-01T01:05:34;5.10;99.90
12370;DHT22;6249;52.128;9.986;2023-02-01T01:08:57;5.20;99.90
12370;DHT22;6249;52.128;9.986;2023-02-01T01:12:17;5.20;99.90
12370;DHT22;6249;52.128;9.986;2023-02-01T01:15:40;5.20;99.90
12370;DHT22;6249;52.128;9.986;2023-02-01T01:19:01;5.20;99.90
12370;DHT22;6249;52.128;9.986;2023-02-01T01:22:22;5.10;99.90
12370;DHT22;6249;52.128;9.986;2023-02-01T01:25:43;5.10;99.90
12370;DHT22;6249;52.128;9.986;2023-02-01T01:29:09;5.00;99.90
12370;DHT22;6249;52.128;9.986;2023-02-01T01:32:33;5.10;99.90
12370;DHT22;6249;52.128;9.986;2023-02-01T01:35:53;5.20;99.90
12370;DHT22;6249;52.128;9.986;2023-02-01T01:39:16;5.10;99.90
12370;DHT22;6249;52.128;9.986;2023-02-01T01:42:43;5.20;99.90
12370;DHT22;6249;52.128;9.986;2023-02-01T01:46:04;5.20;99.90
12370;DHT22;6249;52.128;9.986;2023-02-01T01:49:25;5.10;99.90
12370;DHT22;6249;52.128;9.986;2023-02-01T01:52:49;5.20;99.90
12370;DHT22;6249;52.128;9.986;2023-02-01T01:56:12;5.20;99.90
12370;DHT22;6249;52.128;9.986;2023-02-01T01:59:35;5.20;99.90
12370;DHT22;6249;52.128;9.986;2023-02-01T02:03:05;5.30;99.90
12370;DHT22;6249;52.128;9.986;2023-02-01T02:06:42;5.30;99.90
12370;DHT22;6249;52.128;9.986;2023-02-01T02:10:10;5.40;99.90
12370;DHT22;6249;52.128;9.986;2023-02-01T02:13:39;5.40;99.90
12370;DHT22;6249;52.128;9.986;2023-02-01T02:17:31;5.40;99.90
12370;DHT22;6249;52.128;9.986;2023-02-01T02:36:35;5.50;99.90
12370;DHT22;6249;52.128;9.986;2023-02-01T02:40:11;5.50;99.90
12370;DHT22;6249;52.128;9.986;2023-02-01T02:43:46;5.40;99.90
12370;DHT22;6249;52.128;9.986;2023-02-01T02:51:14;5.40;99.90
12370;DHT22;6249;52.128;9.986;2023-02-01T02:54:56;5.40;99.90
12370;DHT22;6249;52.128;9.986;2023-02-01T02:58:21;5.40;99.90
12370;DHT22;6249;52.128;9.986;2023-02-01T03:02:00;5.40;99.90
12370;DHT22;6249;52.128;9.986;2023-02-01T03:05:45;5.40;99.90
12370;DHT22;6249;52.128;9.986;2023-02-01T03:09:18;5.50;99.90
12370;DHT22;6249;52.128;9.986;2023-02-01T03:12:40;5.50;99.90
12370;DHT22;6249;52.128;9.986;2023-02-01T03:16:32;5.60;99.90
12370;DHT22;6249;52.128;9.986;2023-02-01T03:19:55;5.60;99.90
12370;DHT22;6249;52.128;9.986;2023-02-01T03:23:23;5.60;99.90
12370;DHT22;6249;52.128;9.986;2023-02-01T03:26:55;5.60;99.90
12370;DHT22;6249;52.128;9.986;2023-02-01T03:30:25;5.70;99.90
12370;DHT22;6249;52.128;9.986;2023-02-01T03:33:46;5.80;99.90
12370;DHT22;6249;52.128;9.986;2023-02-01T03:37:10;5.70;99.90
12370;DHT22;6249;52.128;9.986;2023-02-01T03:40:35;5.70;99.90
12370;DHT22;6249;52.128;9.986;2023-02-01T03:44:13;5.80;99.90
12370;DHT22;6249;52.128;9.986;2023-02-01T03:47:40;5.80;99.90
12370;DHT22;6249;52.128;9.986;2023-02-01T03:51:05;5.80;99.90
12370;DHT22;6249;52.128;9.986;2023-02-01T03:54:29;5.70;99.90
12370;DHT22;6249;52.128;9.986;2023-02-01T03:57:55;5.70;99.90
12370;DHT22;6249;52.128;9.986;2023-02-01T04:01:17;5.60;99.90
12370;DHT22;6249;52.128;9.986;2023-02-01T04:04:39;5.60;99.90
12370;DHT22;6249;52.128;9.986;2023-02-01T04:07:59;5.40;99.90
12370;DHT22;6249;52.128;9.986;2023-02-01T04:11:20;5.40;99.90
12370;DHT22;6249;52.128;9.986;2023-02-01T04:14:43;5.30;99.90
12370;DHT22;6249;52.128;9.986;2023-02-01T04:18:04;5.20;99.90
12370;DHT22;6249;52.128;9.986;2023-02-01T04:21:25;5.20;99.90
12370;DHT22;6249;52.128;9.986;2023-02-01T04:24:51;5.30;99.90
12370;DHT22;6249;52.128;9.986;2023-02-01T04:28:11;5.20;99.90
12370;DHT22;6249;52.128;9.986;2023-02-01T04:31:32;5.20;99.90
12370;DHT22;6249;52.128;9.986;2023-02-01T04:34:53;5.20;99.90
12370;DHT22;6249;52.128;9.986;2023-02-01T04:38:13;5.30;99.90
12370;DHT22;6249;52.128;9.986;2023-02-01T04:41:34;5.30;99.90
12370;DHT22;6249;52.128;9.986;2023-02-01T04:44:55;5.40;99.90
12370;DHT22;6249;52.128;9.986;2023-02-01T04:48:18;5.40;99.90
12370;DHT22;6249;52.128;9.986;2023-02-01T04:51:42;5.60;99.90
12370;DHT22;6249;52.128;9.986;2023-02-01T04:55:05;5.40;99.90
12370;DHT22;6249;52.128;9.986;2023-02-01T04:58:28;5.40;99.90
12370;DHT22;6249;52.128;9.986;2023-02-01T05:01:51;5.60;99.90
12370;DHT22;6249;52.128;9.986;2023-02-01T05:05:11;5.60;99.90
12370;DHT22;6249;52.128;9.986;2023-02-01T05:08:32;5.70;99.90
12370;DHT22;6249;52.128;9.986;2023-02-01T05:11:53;5.60;99.90
12370;DHT22;6249;52.128;9.986;2023-02-01T05:15:32;5.80;99.90
12370;DHT22;6249;52.128;9.986;2023-02-01T05:18:53;5.70;99.90
12370;DHT22;6249;52.128;9.986;2023-02-01T05:22:16;5.50;99.90
12370;DHT22;6249;52.128;9.986;2023-02-01T05:25:41;5.30;99.90
12370;DHT22;6249;52.128;9.986;2023-02-01T05:29:03;5.30;99.90
12370;DHT22;6249;52.128;9.986;2023-02-01T05:32:23;5.30;99.90
12370;DHT22;6249;52.128;9.986;2023-02-01T05:35:44;5.20;99.90
12370;DHT22;6249;52.128;9.986;2023-02-01T05:39:05;5.20;99.90
12370;DHT22;6249;52.128;9.986;2023-02-01T05:42:26;5.10;99.90
12370;DHT22;6249;52.128;9.986;2023-02-01T05:45:46;5.10;99.90
12370;DHT22;6249;52.128;9.986;2023-02-01T05:49:09;5.10;99.90
12370;DHT22;6249;52.128;9.986;2023-02-01T05:52:30;5.10;99.90
12370;DHT22;6249;52.128;9.986;2023-02-01T05:55:53;5.10;99.90
12370;DHT22;6249;52.128;9.986;2023-02-01T05:59:17;5.10;99.90
12370;DHT22;6249;52.128;9.986;2023-02-01T06:02:38;5.30;99.90
12370;DHT22;6249;52.128;9.986;2023-02-01T06:06:00;5.30;99.90
12370;DHT22;6249;52.128;9.986;2023-02-01T06:09:21;5.30;99.90
12370;DHT22;6249;52.128;9.986;2023-02-01T06:12:42;5.50;99.90
12370;DHT22;6249;52.128;9.986;2023-02-01T06:16:05;5.40;99.90
12370;DHT22;6249;52.128;9.986;2023-02-01T06:19:29;5.50;99.90
12370;DHT22;6249;52.128;9.986;2023-02-01T06:22:53;5.50;99.90
12370;DHT22;6249;52.128;9.986;2023-02-01T06:26:16;5.40;99.90
12370;DHT22;6249;52.128;9.986;2023-02-01T06:29:38;5.40;99.90
12370;DHT22;6249;52.128;9.986;2023-02-01T06:32:58;5.40;99.90
12370;DHT22;6249;52.128;9.986;2023-02-01T06:36:19;5.30;99.90
12370;DHT22;6249;52.128;9.986;2023-02-01T06:39:44;5.10;99.90
12370;DHT22;6249;52.128;9.986;2023-02-01T06:43:04;5.10;99.90
12370;DHT22;6249;52.128;9.986;2023-02-01T06:46:32;5.10;99.90
12370;DHT22;6249;52.128;9.986;2023-02-01T06:49:55;5.10;99.90
12370;DHT22;6249;52.128;9.986;2023-02-01T06:53:18;5.00;99.90
12370;DHT22;6249;52.128;9.986;2023-02-01T06:56:38;4.90;99.90
12370;DHT22;6249;52.128;9.986;2023-02-01T07:00:02;4.80;99.90
12370;DHT22;6249;52.128;9.986;2023-02-01T07:03:23;4.70;99.90
12370;DHT22;6249;52.128;9.986;2023-02-01T07:06:46;4.60;99.90
12370;DHT22;6249;52.128;9.986;2023-02-01T07:10:10;4.70;99.90
12370;DHT22;6249;52.128;9.986;2023-02-01T07:13:30;4.70;99.90
12370;DHT22;6249;52.128;9.986;2023-02-01T07:16:51;4.80;99.90
12370;DHT22;6249;52.128;9.986;2023-02-01T07:20:12;4.70;99.90
12370;DHT22;6249;52.128;9.986;2023-02-01T07:23:37;4.80;99.90
12370;DHT22;6249;52.128;9.986;2023-02-01T07:27:00;4.80;99.90
12370;DHT22;6249;52.128;9.986;2023-02-01T07:30:21;4.90;99.90
12370;DHT22;6249;52.128;9.986;2023-02-01T07:33:42;4.80;99.90
12370;DHT22;6249;52.128;9.986;2023-02-01T07:37:05;4.80;99.90
12370;DHT22;6249;52.128;9.986;2023-02-01T07:40:28;4.90;99.90
12370;DHT22;6249;52.128;9.986;2023-02-01T07:43:56;4.90;99.90
12370;DHT22;6249;52.128;9.986;2023-02-01T07:47:19;6.30;99.90
12370;DHT22;6249;52.128;9.986;2023-02-01T07:50:40;5.00;99.90
12370;DHT22;6249;52.128;9.986;2023-02-01T07:54:03;5.10;99.90
12370;DHT22;6249;52.128;9.986;2023-02-01T07:57:23;5.20;99.90
12370;DHT22;6249;52.128;9.986;2023-02-01T08:00:46;5.30;99.90
12370;DHT22;6249;52.128;9.986;2023-02-01T08:04:26;5.40;99.90
12370;DHT22;6249;52.128;9.986;2023-02-01T08:07:50;5.40;99.90
12370;DHT22;6249;52.128;9.986;2023-02-01T08:11:10;5.50;99.90
12370;DHT22;6249;52.128;9.986;2023-02-01T08:14:31;5.60;99.90
12370;DHT22;6249;52.128;9.986;2023-02-01T08:17:52;5.60;99.90
12370;DHT22;6249;52.128;9.986;2023-02-01T08:21:20;5.70;99.90
12370;DHT22;6249;52.128;9.986;2023-02-01T08:24:43;5.70;99.90
12370;DHT22;6249;52.128;9.986;2023-02-01T08:28:06;5.80;99.90
12370;DHT22;6249;52.128;9.986;2023-02-01T08:31:28;5.80;99.90
12370;DHT22;6249;52.128;9.986;2023-02-01T08:34:53;5.90;99.90
12370;DHT22;6249;52.128;9.986;2023-02-01T08:38:14;5.90;99.90
12370;DHT22;6249;52.128;9.986;2023-02-01T08:41:35;6.00;99.90
12370;DHT22;6249;52.128;9.986;2023-02-01T08:44:56;6.00;99.90
12370;DHT22;6249;52.128;9.986;2023-02-01T08:48:16;6.10;99.90
12370;DHT22;6249;52.128;9.986;2023-02-01T08:51:37;6.20;99.90
12370;DHT22;6249;52.128;9.986;2023-02-01T08:54:58;6.20;99.90
12370;DHT22;6249;52.128;9.986;2023-02-01T08:58:19;6.20;99.90
12370;DHT22;6249;52.128;9.986;2023-02-01T09:01:42;6.40;99.90
12370;DHT22;6249;52.128;9.986;2023-02-01T09:05:04;6.60;99.90
12370;DHT22;6249;52.128;9.986;2023-02-01T09:08:27;6.60;99.90
12370;DHT22;6249;52.128;9.986;2023-02-01T09:11:52;6.50;99.90
12370;DHT22;6249;52.128;9.986;2023-02-01T09:15:13;6.80;99.90
12370;DHT22;6249;52.128;9.986;2023-02-01T09:18:34;6.90;99.90
12370;DHT22;6249;52.128;9.986;2023-02-01T09:21:54;7.20;99.90
12370;DHT22;6249;52.128;9.986;2023-02-01T09:25:15;7.30;99.90
12370;DHT22;6249;52.128;9.986;2023-02-01T09:28:36;7.10;99.90
12370;DHT22;6249;52.128;9.986;2023-02-01T09:31:56;7.10;99.90
12370;DHT22;6249;52.128;9.986;2023-02-01T09:35:17;6.80;99.90
12370;DHT22;6249;52.128;9.986;2023-02-01T09:38:38;6.60;99.90
12370;DHT22;6249;52.128;9.986;2023-02-01T09:49:34;6.70;99.90
12370;DHT22;6249;52.128;9.986;2023-02-01T09:57:10;6.70;99.90
12370;DHT22;6249;52.128;9.986;2023-02-01T10:00:49;6.70;99.90
12370;DHT22;6249;52.128;9.986;2023-02-01T10:04:13;6.80;99.90
12370;DHT22;6249;52.128;9.986;2023-02-01T10:08:04;6.90;99.90
12370;DHT22;6249;52.128;9.986;2023-02-01T10:11:59;6.90;99.90
12370;DHT22;6249;52.128;9.986;2023-02-01T10:19:24;7.20;99.90
12370;DHT22;6249;52.128;9.986;2023-02-01T10:26:39;7.40;99.90
12370;DHT22;6249;52.128;9.986;2023-02-01T10:30:22;7.50;99.90
12370;DHT22;6249;52.128;9.986;2023-02-01T10:33:45;7.60;99.90
12370;DHT22;6249;52.128;9.986;2023-02-01T10:37:30;7.70;99.90
12370;DHT22;6249;52.128;9.986;2023-02-01T10:40:57;7.80;99.90
12370;DHT22;6249;52.128;9.986;2023-02-01T10:44:25;7.90;99.90
12370;DHT22;6249;52.128;9.986;2023-02-01T10:47:51;7.70;99.90
12370;DHT22;6249;52.128;9.986;2023-02-01T10:51:16;7.70;99.90
12370;DHT22;6249;52.128;9.986;2023-02-01T10:54:43;7.80;99.90
12370;DHT22;6249;52.128;9.986;2023-02-01T10:58:14;7.80;99.90
12370;DHT22;6249;52.128;9.986;2023-02-01T11:01:41;7.50;99.90
12370;DHT22;6249;52.128;9.986;2023-02-01T11:05:07;7.50;99.90
12370;DHT22;6249;52.128;9.986;2023-02-01T11:08:45;7.40;99.90
12370;DHT22;6249;52.128;9.986;2023-02-01T11:12:37;7.60;99.90
12370;DHT22;6249;52.128;9.986;2023-02-01T11:15:58;7.50;99.90
12370;DHT22;6249;52.128;9.986;2023-02-01T11:19:19;7.50;99.90
12370;DHT22;6249;52.128;9.986;2023-02-01T11:22:49;7.50;99.90
12370;DHT22;6249;52.128;9.986;2023-02-01T11:26:19;7.40;99.90
12370;DHT22;6249;52.128;9.986;2023-02-01T11:29:46;7.30;99.90
12370;DHT22;6249;52.128;9.986;2023-02-01T11:33:13;7.20;99.90
12370;DHT22;6249;52.128;9.986;2023-02-01T11:36:39;7.20;99.90
12370;DHT22;6249;52.128;9.986;2023-02-01T11:40:22;7.30;99.90
12370;DHT22;6249;52.128;9.986;2023-02-01T11:43:58;7.20;99.90
12370;DHT22;6249;52.128;9.986;2023-02-01T11:54:59;7.10;99.90
12370;DHT22;6249;52.128;9.986;2023-02-01T12:05:27;6.90;99.90
12370;DHT22;6249;52.128;9.986;2023-02-01T12:12:50;6.90;99.90
12370;DHT22;6249;52.128;9.986;2023-02-01T12:16:40;6.90;99.90
12370;DHT22;6249;52.128;9.986;2023-02-01T12:46:41;7.20;99.90
12370;DHT22;6249;52.128;9.986;2023-02-01T12:50:18;7.10;99.90
12370;DHT22;6249;52.128;9.986;2023-02-01T12:57:40;6.70;99.90
12370;DHT22;6249;52.128;9.986;2023-02-01T13:01:07;6.30;99.90
12370;DHT22;6249;52.128;9.986;2023-02-01T13:04:33;6.00;99.90
12370;DHT22;6249;52.128;9.986;2023-02-01T13:08:07;5.90;99.90
12370;DHT22;6249;52.128;9.986;2023-02-01T13:11:33;5.90;99.90
12370;DHT22;6249;52.128;9.986;2023-02-01T13:15:19;6.00;99.90
12370;DHT22;6249;52.128;9.986;2023-02-01T13:18:44;6.00;99.90
12370;DHT22;6249;52.128;9.986;2023-02-01T13:22:19;7.20;99.90
12370;DHT22;6249;52.128;9.986;2023-02-01T13:25:50;6.10;99.90
12370;DHT22;6249;52.128;9.986;2023-02-01T13:29:12;6.10;99.90
12370;DHT22;6249;52.128;9.986;2023-02-01T13:32:47;6.00;99.90
12370;DHT22;6249;52.128;9.986;2023-02-01T13:43:30;5.60;99.90
12370;DHT22;6249;52.128;9.986;2023-02-01T13:46:56;5.50;99.90
12370;DHT22;6249;52.128;9.986;2023-02-01T13:50:21;5.50;99.90
12370;DHT22;6249;52.128;9.986;2023-02-01T13:53:48;5.40;99.90
12370;DHT22;6249;52.128;9.986;2023-02-01T14:04:49;5.20;99.90
12370;DHT22;6249;52.128;9.986;2023-02-01T14:08:20;5.10;99.90
12370;DHT22;6249;52.128;9.986;2023-02-01T14:11:54;5.10;99.90
12370;DHT22;6249;52.128;9.986;2023-02-01T14:15:27;4.70;99.90
12370;DHT22;6249;52.128;9.986;2023-02-01T14:25:44;2.60;99.90
12370;DHT22;6249;52.128;9.986;2023-02-01T14:32:50;2.30;99.90
12370;DHT22;6249;52.128;9.986;2023-02-01T14:36:14;2.30;99.90
12370;DHT22;6249;52.128;9.986;2023-02-01T14:43:07;2.40;99.90
12370;DHT22;6249;52.128;9.986;2023-02-01T14:53:53;2.50;99.90
12370;DHT22;6249;52.128;9.986;2023-02-01T14:57:18;2.60;99.90
12370;DHT22;6249;52.128;9.986;2023-02-01T15:00:51;2.70;99.90
12370;DHT22;6249;52.128;9.986;2023-02-01T15:04:18;2.80;99.90
12370;DHT22;6249;52.128;9.986;2023-02-01T15:07:41;2.90;99.90
12370;DHT22;6249;52.128;9.986;2023-02-01T15:11:11;3.10;99.90
12370;DHT22;6249;52.128;9.986;2023-02-01T15:14:37;3.20;99.90
12370;DHT22;6249;52.128;9.986;2023-02-01T15:17:59;3.40;99.90
12370;DHT22;6249;52.128;9.986;2023-02-01T15:21:22;3.50;99.90
12370;DHT22;6249;52.128;9.986;2023-02-01T15:24:43;3.60;99.90
12370;DHT22;6249;52.128;9.986;2023-02-01T15:28:14;3.70;99.90
12370;DHT22;6249;52.128;9.986;2023-02-01T15:35:03;3.70;99.90
12370;DHT22;6249;52.128;9.986;2023-02-01T15:41:56;3.70;99.90
12370;DHT22;6249;52.128;9.986;2023-02-01T15:45:28;3.70;99.90
12370;DHT22;6249;52.128;9.986;2023-02-01T15:48:54;3.60;99.90
12370;DHT22;6249;52.128;9.986;2023-02-01T15:55:42;3.70;99.90
12370;DHT22;6249;52.128;9.986;2023-02-01T15:59:06;3.80;99.90
12370;DHT22;6249;52.128;9.986;2023-02-01T16:02:36;3.80;99.90
12370;DHT22;6249;52.128;9.986;2023-02-01T16:06:00;4.00;99.90
12370;DHT22;6249;52.128;9.986;2023-02-01T16:09:35;4.10;99.90
12370;DHT22;6249;52.128;9.986;2023-02-01T16:12:56;4.30;99.90
12370;DHT22;6249;52.128;9.986;2023-02-01T16:16:20;4.30;99.90
12370;DHT22;6249;52.128;9.986;2023-02-01T16:19:43;4.40;99.90
12370;DHT22;6249;52.128;9.986;2023-02-01T16:23:04;4.40;99.90
12370;DHT22;6249;52.128;9.986;2023-02-01T16:26:25;4.50;99.90
12370;DHT22;6249;52.128;9.986;2023-02-01T16:29:48;4.40;99.90
12370;DHT22;6249;52.128;9.986;2023-02-01T16:33:15;4.50;99.90
12370;DHT22;6249;52.128;9.986;2023-02-01T16:36:42;4.60;99.90
12370;DHT22;6249;52.128;9.986;2023-02-01T16:40:05;4.60;99.90
12370;DHT22;6249;52.128;9.986;2023-02-01T16:43:28;4.40;99.90
12370;DHT22;6249;52.128;9.986;2023-02-01T16:46:51;4.60;99.90
12370;DHT22;6249;52.128;9.986;2023-02-01T16:50:17;4.50;99.90
12370;DHT22;6249;52.128;9.986;2023-02-01T16:53:38;4.60;99.90
12370;DHT22;6249;52.128;9.986;2023-02-01T16:56:59;4.50;99.90
12370;DHT22;6249;52.128;9.986;2023-02-01T17:00:22;4.50;99.90
12370;DHT22;6249;52.128;9.986;2023-02-01T17:03:46;4.50;99.90
12370;DHT22;6249;52.128;9.986;2023-02-01T17:07:14;4.50;99.90
12370;DHT22;6249;52.128;9.986;2023-02-01T17:10:35;4.70;99.90
12370;DHT22;6249;52.128;9.986;2023-02-01T17:14:16;4.80;99.90
12370;DHT22;6249;52.128;9.986;2023-02-01T17:17:38;4.90;99.90
12370;DHT22;6249;52.128;9.986;2023-02-01T17:21:04;5.00;99.90
12370;DHT22;6249;52.128;9.986;2023-02-01T17:24:30;4.90;99.90
12370;DHT22;6249;52.128;9.986;2023-02-01T17:27:50;5.00;99.90
12370;DHT22;6249;52.128;9.986;2023-02-01T17:31:15;5.10;99.90
12370;DHT22;6249;52.128;9.986;2023-02-01T17:34:38;5.10;99.90
12370;DHT22;6249;52.128;9.986;2023-02-01T17:37:59;5.10;99.90
12370;DHT22;6249;52.128;9.986;2023-02-01T17:41:20;5.00;99.90
12370;DHT22;6249;52.128;9.986;2023-02-01T17:44:40;4.90;99.90
12370;DHT22;6249;52.128;9.986;2023-02-01T17:48:05;4.90;99.90
12370;DHT22;6249;52.128;9.986;2023-02-01T17:51:27;4.90;99.90
12370;DHT22;6249;52.128;9.986;2023-02-01T17:54:48;5.00;99.90
12370;DHT22;6249;52.128;9.986;2023-02-01T17:58:14;5.10;99.90
12370;DHT22;6249;52.128;9.986;2023-02-01T18:01:38;5.20;99.90
12370;DHT22;6249;52.128;9.986;2023-02-01T18:05:01;5.10;99.90
12370;DHT22;6249;52.128;9.986;2023-02-01T18:08:25;5.00;99.90
12370;DHT22;6249;52.128;9.986;2023-02-01T18:11:48;5.20;99.90
12370;DHT22;6249;52.128;9.986;2023-02-01T18:15:18;5.30;99.90
12370;DHT22;6249;52.128;9.986;2023-02-01T18:18:39;5.40;99.90
12370;DHT22;6249;52.128;9.986;2023-02-01T18:22:01;5.50;99.90
12370;DHT22;6249;52.128;9.986;2023-02-01T18:25:27;5.50;99.90
12370;DHT22;6249;52.128;9.986;2023-02-01T18:28:49;5.60;99.90
12370;DHT22;6249;52.128;9.986;2023-02-01T18:32:12;5.70;99.90
12370;DHT22;6249;52.128;9.986;2023-02-01T18:35:35;5.50;99.90
12370;DHT22;6249;52.128;9.986;2023-02-01T18:38:58;5.60;99.90
12370;DHT22;6249;52.128;9.986;2023-02-01T18:42:18;5.70;99.90
12370;DHT22;6249;52.128;9.986;2023-02-01T18:45:41;5.70;99.90
12370;DHT22;6249;52.128;9.986;2023-02-01T18:49:01;5.70;99.90
12370;DHT22;6249;52.128;9.986;2023-02-01T18:52:22;5.70;99.90
12370;DHT22;6249;52.128;9.986;2023-02-01T18:55:45;5.90;99.90
12370;DHT22;6249;52.128;9.986;2023-02-01T18:59:06;5.80;99.90
12370;DHT22;6249;52.128;9.986;2023-02-01T19:02:28;5.80;99.90
12370;DHT22;6249;52.128;9.986;2023-02-01T19:05:53;5.80;99.90
12370;DHT22;6249;52.128;9.986;2023-02-01T19:09:17;5.70;99.90
12370;DHT22;6249;52.128;9.986;2023-02-01T19:12:37;5.70;99.90
12370;DHT22;6249;52.128;9.986;2023-02-01T19:15:58;5.80;99.90
12370;DHT22;6249;52.128;9.986;2023-02-01T19:19:21;5.70;99.90
12370;DHT22;6249;52.128;9.986;2023-02-01T19:22:41;5.80;99.90
12370;DHT22;6249;52.128;9.986;2023-02-01T19:26:02;5.90;99.90
12370;DHT22;6249;52.128;9.986;2023-02-01T19:29:23;5.90;99.90
12370;DHT22;6249;52.128;9.986;2023-02-01T19:32:47;5.90;99.90
12370;DHT22;6249;52.128;9.986;2023-02-01T19:36:10;5.90;99.90
12370;DHT22;6249;52.128;9.986;2023-02-01T19:39:31;5.90;99.90
12370;DHT22;6249;52.128;9.986;2023-02-01T19:42:52;5.90;99.90
12370;DHT22;6249;52.128;9.986;2023-02-01T19:46:12;5.80;99.90
12370;DHT22;6249;52.128;9.986;2023-02-01T19:49:33;5.90;99.90
12370;DHT22;6249;52.128;9.986;2023-02-01T19:52:53;5.90;99.90
12370;DHT22;6249;52.128;9.986;2023-02-01T19:56:14;5.90;99.90
12370;DHT22;6249;52.128;9.986;2023-02-01T19:59:37;5.80;99.90
12370;DHT22;6249;52.128;9.986;2023-02-01T20:03:00;5.80;99.90
12370;DHT22;6249;52.128;9.986;2023-02-01T20:06:23;5.80;99.90
12370;DHT22;6249;52.128;9.986;2023-02-01T20:09:44;5.80;99.90
12370;DHT22;6249;52.128;9.986;2023-02-01T20:13:04;5.70;99.90
12370;DHT22;6249;52.128;9.986;2023-02-01T20:16:26;5.80;99.90
12370;DHT22;6249;52.128;9.986;2023-02-01T20:19:51;5.80;99.90
12370;DHT22;6249;52.128;9.986;2023-02-01T20:23:12;5.90;99.90
12370;DHT22;6249;52.128;9.986;2023-02-01T20:26:33;5.80;99.90
12370;DHT22;6249;52.128;9.986;2023-02-01T20:29:53;5.80;99.90
12370;DHT22;6249;52.128;9.986;2023-02-01T20:33:14;5.80;99.90
12370;DHT22;6249;52.128;9.986;2023-02-01T20:36:36;5.70;99.90
12370;DHT22;6249;52.128;9.986;2023-02-01T20:39:58;5.70;99.90
12370;DHT22;6249;52.128;9.986;2023-02-01T20:43:21;5.70;99.90
12370;DHT22;6249;52.128;9.986;2023-02-01T20:46:42;5.80;99.90
12370;DHT22;6249;52.128;9.986;2023-02-01T20:50:02;5.70;99.90
12370;DHT22;6249;52.128;9.986;2023-02-01T20:53:26;5.80;99.90
12370;DHT22;6249;52.128;9.986;2023-02-01T20:56:46;5.80;99.90
12370;DHT22;6249;52.128;9.986;2023-02-01T21:00:07;5.80;99.90
12370;DHT22;6249;52.128;9.986;2023-02-01T21:03:34;5.80;99.90
12370;DHT22;6249;52.128;9.986;2023-02-01T21:06:56;5.70;99.90
12370;DHT22;6249;52.128;9.986;2023-02-01T21:10:18;5.80;99.90
12370;DHT22;6249;52.128;9.986;2023-02-01T21:13:42;5.80;99.90
12370;DHT22;6249;52.128;9.986;2023-02-01T21:17:12;5.80;99.90
12370;DHT22;6249;52.128;9.986;2023-02-01T21:20:32;5.80;99.90
12370;DHT22;6249;52.128;9.986;2023-02-01T21:24:01;5.90;99.90
12370;DHT22;6249;52.128;9.986;2023-02-01T21:27:24;5.90;99.90
12370;DHT22;6249;52.128;9.986;2023-02-01T21:30:45;6.10;99.90
12370;DHT22;6249;52.128;9.986;2023-02-01T21:34:08;6.10;99.90
12370;DHT22;6249;52.128;9.986;2023-02-01T21:37:29;6.10;99.90
12370;DHT22;6249;52.128;9.986;2023-02-01T21:40:50;6.10;99.90
12370;DHT22;6249;52.128;9.986;2023-02-01T21:44:30;6.00;99.90
12370;DHT22;6249;52.128;9.986;2023-02-01T21:47:55;6.00;99.90
12370;DHT22;6249;52.128;9.986;2023-02-01T21:51:18;6.10;99.90
12370;DHT22;6249;52.128;9.986;2023-02-01T21:54:42;6.00;99.90
12370;DHT22;6249;52.128;9.986;2023-02-01T21:58:03;6.10;99.90
12370;DHT22;6249;52.128;9.986;2023-02-01T22:01:31;6.10;99.90
12370;DHT22;6249;52.128;9.986;2023-02-01T22:04:53;6.00;99.90
12370;DHT22;6249;52.128;9.986;2023-02-01T22:08:16;6.10;99.90
12370;DHT22;6249;52.128;9.986;2023-02-01T22:11:37;6.10;99.90
12370;DHT22;6249;52.128;9.986;2023-02-01T22:14:57;6.10;99.90
12370;DHT22;6249;52.128;9.986;2023-02-01T22:18:20;6.10;99.90
12370;DHT22;6249;52.128;9.986;2023-02-01T22:21:45;6.00;99.90
12370;DHT22;6249;52.128;9.986;2023-02-01T22:25:06;6.10;99.90
12370;DHT22;6249;52.128;9.986;2023-02-01T22:28:28;6.10;99.90
12370;DHT22;6249;52.128;9.986;2023-02-01T22:31:51;6.00;99.90
12370;DHT22;6249;52.128;9.986;2023-02-01T22:35:12;6.20;99.90
12370;DHT22;6249;52.128;9.986;2023-02-01T22:38:35;6.20;99.90
12370;DHT22;6249;52.128;9.986;2023-02-01T22:41:55;6.10;99.90
12370;DHT22;6249;52.128;9.986;2023-02-01T22:45:16;6.00;99.90
12370;DHT22;6249;52.128;9.986;2023-02-01T22:48:38;5.90;99.90
12370;DHT22;6249;52.128;9.986;2023-02-01T22:51:58;6.00;99.90
12370;DHT22;6249;52.128;9.986;2023-02-01T22:55:21;6.00;99.90
12370;DHT22;6249;52.128;9.986;2023-02-01T22:58:44;5.90;99.90
12370;DHT22;6249;52.128;9.986;2023-02-01T23:02:05;5.90;99.90
12370;DHT22;6249;52.128;9.986;2023-02-01T23:05:25;5.90;99.90
12370;DHT22;6249;52.128;9.986;2023-02-01T23:08:46;5.80;99.90
12370;DHT22;6249;52.128;9.986;2023-02-01T23:12:09;5.80;99.90
12370;DHT22;6249;52.128;9.986;2023-02-01T23:15:31;5.80;99.90
12370;DHT22;6249;52.128;9.986;2023-02-01T23:18:54;5.80;99.90
12370;DHT22;6249;52.128;9.986;2023-02-01T23:22:16;5.80;99.90
12370;DHT22;6249;52.128;9.986;2023-02-01T23:25:36;5.70;99.90
12370;DHT22;6249;52.128;9.986;2023-02-01T23:28:57;5.70;99.90
12370;DHT22;6249;52.128;9.986;2023-02-01T23:32:19;5.80;99.90
12370;DHT22;6249;52.128;9.986;2023-02-01T23:35:39;5.80;99.90
12370;DHT22;6249;52.128;9.986;2023-02-01T23:39:00;5.80;99.90
12370;DHT22;6249;52.128;9.986;2023-02-01T23:42:23;5.70;99.90
12370;DHT22;6249;52.128;9.986;2023-02-01T23:45:46;5.70;99.90
12370;DHT22;6249;52.128;9.986;2023-02-01T23:49:08;5.80;99.90
12370;DHT22;6249;52.128;9.986;2023-02-01T23:52:29;5.70;99.90
12370;DHT22;6249;52.128;9.986;2023-02-01T23:55:53;6.70;99.90
12370;DHT22;6249;52.128;9.986;2023-02-01T23:59:18;5.70;99.90
